createdAt,value
2018-02-10T00:02:12.452Z,71.21
2018-02-10T00:04:40.808Z,70.90
2018-02-10T00:07:09.134Z,71.08
2018-02-10T00:09:37.499Z,70.89
2018-02-10T00:12:06.578Z,71.15
2018-02-10T00:14:35.663Z,71.06
2018-02-10T00:17:03.988Z,71.34
2018-02-10T00:19:32.318Z,71.07
2018-02-10T00:22:00.641Z,70.88
2018-02-10T00:24:28.965Z,71.09
2018-02-10T00:26:57.392Z,71.42
2018-02-10T00:29:25.873Z,71.51
2018-02-10T00:31:54.196Z,70.77
2018-02-10T00:34:22.512Z,70.76
2018-02-10T00:36:50.863Z,71.16
2018-02-10T00:39:19.971Z,70.59
2018-02-10T00:41:49.036Z,70.81
2018-02-10T00:44:17.378Z,71.07
2018-02-10T00:46:45.701Z,71.69
2018-02-10T00:49:14.832Z,71.55
2018-02-10T00:51:43.260Z,71.20
2018-02-10T00:54:11.564Z,71.54
2018-02-10T00:56:40.662Z,71.20
2018-02-10T00:59:09.743Z,71.15
2018-02-10T01:01:38.126Z,70.83
2018-02-10T01:04:07.290Z,71.47
2018-02-10T01:06:35.615Z,71.10
2018-02-10T01:09:03.929Z,71.22
2018-02-10T01:11:32.243Z,71.44
2018-02-10T01:14:01.360Z,72.18
2018-02-10T01:16:29.673Z,72.59
2018-02-10T01:18:58.016Z,73.78
2018-02-10T01:21:26.317Z,73.44
2018-02-10T01:23:54.661Z,74.06
2018-02-10T01:26:23.000Z,73.69
2018-02-10T01:28:51.425Z,73.60
2018-02-10T01:31:19.822Z,73.42
2018-02-10T01:33:48.178Z,72.51
2018-02-10T01:36:16.499Z,73.18
2018-02-10T01:38:44.825Z,74.12
2018-02-10T01:41:13.139Z,74.37
2018-02-10T01:43:42.288Z,74.37
2018-02-10T01:46:11.379Z,74.32
2018-02-10T01:48:40.661Z,74.04
2018-02-10T01:51:08.999Z,73.36
2018-02-10T01:53:37.304Z,73.56
2018-02-10T01:56:05.652Z,73.53
2018-02-10T01:58:34.128Z,73.70
2018-02-10T02:01:02.435Z,73.27
2018-02-10T02:03:31.522Z,73.76
2018-02-10T02:05:59.829Z,73.20
2018-02-10T02:08:28.923Z,73.67
2018-02-10T02:10:57.998Z,73.80
2018-02-10T02:13:26.376Z,74.02
2018-02-10T02:15:54.717Z,74.59
2018-02-10T02:18:23.044Z,75.05
2018-02-10T02:20:51.383Z,74.15
2018-02-10T02:23:19.720Z,73.86
2018-02-10T02:25:48.120Z,73.98
2018-02-10T02:28:16.416Z,74.27
2018-02-10T02:30:44.759Z,74.72
2018-02-10T02:33:13.064Z,74.72
2018-02-10T02:35:41.391Z,74.45
2018-02-10T02:38:10.457Z,74.43
2018-02-10T02:40:39.201Z,74.38
2018-02-10T02:43:07.882Z,74.48
2018-02-10T02:45:36.200Z,74.48
2018-02-10T02:48:04.534Z,74.64
2018-02-10T02:50:32.839Z,74.82
2018-02-10T02:53:01.179Z,75.48
2018-02-10T02:55:29.729Z,75.25
2018-02-10T02:57:58.900Z,75.07
2018-02-10T03:00:27.348Z,75.55
2018-02-10T03:02:55.793Z,75.45
2018-02-10T03:05:24.877Z,75.29
2018-02-10T03:07:53.180Z,74.69
2018-02-10T03:10:21.519Z,74.56
2018-02-10T03:12:49.820Z,74.05
2018-02-10T03:15:18.132Z,74.71
2018-02-10T03:17:46.449Z,74.91
2018-02-10T03:20:15.537Z,75.66
2018-02-10T03:22:43.853Z,75.78
2018-02-10T03:25:12.206Z,75.84
2018-02-10T03:27:41.300Z,75.05
2018-02-10T03:30:10.400Z,75.58
2018-02-10T03:32:38.784Z,75.46
2018-02-10T03:35:07.098Z,75.43
2018-02-10T03:37:35.436Z,75.33
2018-02-10T03:40:03.882Z,75.38
2018-02-10T03:42:32.408Z,75.06
2018-02-10T03:45:00.732Z,75.13
2018-02-10T03:47:29.301Z,75.07
2018-02-10T03:49:57.649Z,74.36
2018-02-10T03:52:26.039Z,74.18
2018-02-10T03:54:54.375Z,74.43
2018-02-10T03:57:24.038Z,73.67
2018-02-10T03:59:52.370Z,74.25
2018-02-10T04:02:20.663Z,74.26
2018-02-10T04:04:49.002Z,73.11
2018-02-10T04:07:18.081Z,73.71
2018-02-10T04:09:46.386Z,73.66
2018-02-10T04:12:14.755Z,73.44
2018-02-10T04:14:43.861Z,73.52
2018-02-10T04:17:12.264Z,73.50
2018-02-10T04:19:40.576Z,74.06
2018-02-10T04:22:10.365Z,74.13
2018-02-10T04:24:38.708Z,74.06
2018-02-10T04:27:07.013Z,74.40
2018-02-10T04:29:35.338Z,74.72
2018-02-10T04:32:04.440Z,74.42
2018-02-10T04:34:32.761Z,74.70
2018-02-10T04:37:01.106Z,74.66
2018-02-10T04:39:30.187Z,74.88
2018-02-10T04:41:59.248Z,74.85
2018-02-10T04:44:27.735Z,74.87
2018-02-10T04:46:56.061Z,74.90
2018-02-10T04:49:24.479Z,75.55
2018-02-10T04:51:54.297Z,75.85
2018-02-10T04:54:22.646Z,75.88
2018-02-10T04:56:50.947Z,76.33
2018-02-10T04:59:19.270Z,75.93
2018-02-10T05:01:47.595Z,76.32
2018-02-10T05:04:15.898Z,76.16
2018-02-10T05:06:44.996Z,76.67
2018-02-10T05:09:13.375Z,77.07
2018-02-10T05:11:42.494Z,76.89
2018-02-10T05:14:10.830Z,76.98
2018-02-10T05:16:39.209Z,76.98
2018-02-10T05:19:07.535Z,76.77
2018-02-10T05:21:35.884Z,77.17
2018-02-10T05:24:04.328Z,77.39
2018-02-10T05:26:32.638Z,77.43
2018-02-10T05:29:00.967Z,77.54
2018-02-10T05:31:29.274Z,77.43
2018-02-10T05:33:58.381Z,77.20
2018-02-10T05:36:26.709Z,77.32
2018-02-10T05:38:55.024Z,77.32
2018-02-10T05:41:24.138Z,78.26
2018-02-10T05:43:52.472Z,77.91
2018-02-10T05:46:20.790Z,77.16
2018-02-10T05:48:49.097Z,76.33
2018-02-10T05:51:17.540Z,77.08
2018-02-10T05:53:45.870Z,77.29
2018-02-10T05:56:14.355Z,77.19
2018-02-10T05:58:42.694Z,76.14
2018-02-10T06:01:10.990Z,76.47
2018-02-10T06:03:39.344Z,77.47
2018-02-10T06:06:07.754Z,77.21
2018-02-10T06:08:36.927Z,76.75
2018-02-10T06:11:05.225Z,78.18
2018-02-10T06:13:33.885Z,78.50
2018-02-10T06:16:02.375Z,78.29
2018-02-10T06:18:30.693Z,77.75
2018-02-10T06:20:59.030Z,78.90
2018-02-10T06:23:27.329Z,78.51
2018-02-10T06:25:55.679Z,77.64
2018-02-10T06:28:24.154Z,78.41
2018-02-10T06:30:52.490Z,78.59
2018-02-10T06:33:21.677Z,78.35
2018-02-10T06:35:50.919Z,77.96
2018-02-10T06:38:19.259Z,78.02
2018-02-10T06:40:48.337Z,78.52
2018-02-10T06:43:16.718Z,77.89
2018-02-10T06:45:45.799Z,78.50
2018-02-10T06:48:14.922Z,78.92
2018-02-10T06:50:44.024Z,78.45
2018-02-10T06:53:12.405Z,78.70
2018-02-10T06:55:40.755Z,78.85
2018-02-10T06:58:09.904Z,78.04
2018-02-10T07:00:38.369Z,78.03
2018-02-10T07:03:06.768Z,78.62
2018-02-10T07:05:35.101Z,78.86
2018-02-10T07:08:03.544Z,78.63
2018-02-10T07:10:31.884Z,78.64
2018-02-10T07:13:00.365Z,78.30
2018-02-10T07:15:28.836Z,78.25
2018-02-10T07:17:57.250Z,77.87
2018-02-10T07:20:25.595Z,77.42
2018-02-10T07:22:53.920Z,78.45
2018-02-10T07:25:22.335Z,76.98
2018-02-10T07:27:51.183Z,76.88
2018-02-10T07:30:19.579Z,77.22
2018-02-10T07:32:48.027Z,77.24
2018-02-10T07:35:17.054Z,76.97
2018-02-10T07:37:46.147Z,77.56
2018-02-10T07:40:15.999Z,77.05
2018-02-10T07:42:44.439Z,76.65
2018-02-10T07:45:13.533Z,77.17
2018-02-10T07:47:42.639Z,77.59
2018-02-10T07:50:10.968Z,77.51
2018-02-10T07:52:39.284Z,78.05
2018-02-10T07:55:08.402Z,79.75
2018-02-10T07:57:36.909Z,76.56
2018-02-10T08:00:05.266Z,77.22
2018-02-10T08:02:33.611Z,76.94
2018-02-10T08:05:01.968Z,77.27
2018-02-10T08:07:30.306Z,77.07
2018-02-10T08:09:58.644Z,76.61
2018-02-10T08:12:27.723Z,76.92
2018-02-10T08:14:56.800Z,76.99
2018-02-10T08:17:25.136Z,77.15
2018-02-10T08:19:53.721Z,76.76
2018-02-10T08:22:22.073Z,77.03
2018-02-10T08:24:54.506Z,77.55
2018-02-10T08:27:23.626Z,78.17
2018-02-10T08:29:52.883Z,78.05
2018-02-10T08:32:21.336Z,77.95
2018-02-10T08:34:49.693Z,77.44
2018-02-10T08:37:18.765Z,78.01
2018-02-10T08:39:47.312Z,76.78
2018-02-10T08:42:15.679Z,75.45
2018-02-10T08:44:44.259Z,76.47
2018-02-10T08:47:12.786Z,75.62
2018-02-10T08:49:41.897Z,75.97
2018-02-10T08:52:10.223Z,75.89
2018-02-10T08:54:38.573Z,75.68
2018-02-10T08:57:06.909Z,75.87
2018-02-10T08:59:36.026Z,74.89
2018-02-10T09:02:04.375Z,75.34
2018-02-10T09:04:32.703Z,76.04
2018-02-10T09:07:01.085Z,75.58
2018-02-10T09:09:29.436Z,75.86
2018-02-10T09:11:57.802Z,75.17
2018-02-10T09:14:27.140Z,75.52
2018-02-10T09:16:55.479Z,75.83
2018-02-10T09:19:24.641Z,75.38
2018-02-10T09:21:52.951Z,75.53
2018-02-10T09:24:22.079Z,76.17
2018-02-10T09:26:50.401Z,76.52
2018-02-10T09:29:19.576Z,75.52
2018-02-10T09:31:48.694Z,75.32
2018-02-10T09:34:17.018Z,75.96
2018-02-10T09:36:45.322Z,75.57
2018-02-10T09:39:13.653Z,75.83
2018-02-10T09:41:42.019Z,75.06
2018-02-10T09:44:11.116Z,74.55
2018-02-10T09:46:40.273Z,75.23
2018-02-10T09:49:08.590Z,75.13
2018-02-10T09:51:37.026Z,74.75
2018-02-10T09:54:06.109Z,75.02
2018-02-10T09:56:34.413Z,75.32
2018-02-10T09:59:03.087Z,75.21
2018-02-10T10:01:31.443Z,75.07
2018-02-10T10:03:59.774Z,74.93
2018-02-10T10:06:28.233Z,75.97
2018-02-10T10:08:57.444Z,75.13
2018-02-10T10:11:26.643Z,74.96
2018-02-10T10:13:55.808Z,75.77
2018-02-10T10:16:24.231Z,75.75
2018-02-10T10:18:52.655Z,75.46
2018-02-10T10:21:20.992Z,75.29
2018-02-10T10:23:49.397Z,75.20
2018-02-10T10:26:17.863Z,76.19
2018-02-10T10:28:46.202Z,76.25
2018-02-10T10:31:15.326Z,76.09
2018-02-10T10:33:43.710Z,74.86
2018-02-10T10:36:12.288Z,76.49
2018-02-10T10:38:40.610Z,75.66
2018-02-10T10:41:09.007Z,75.96
2018-02-10T10:43:38.117Z,75.25
2018-02-10T10:46:06.527Z,75.38
2018-02-10T10:48:35.248Z,74.68
2018-02-10T10:51:03.604Z,75.46
2018-02-10T10:53:31.940Z,75.67
2018-02-10T10:56:00.551Z,74.92
2018-02-10T10:58:29.001Z,75.22
2018-02-10T11:00:57.620Z,74.80
2018-02-10T11:03:26.062Z,75.29
2018-02-10T11:05:54.371Z,75.77
2018-02-10T11:08:22.818Z,76.06
2018-02-10T11:10:51.168Z,74.62
2018-02-10T11:13:20.299Z,74.35
2018-02-10T11:15:48.683Z,75.38
2018-02-10T11:18:16.977Z,75.67
2018-02-10T11:20:45.315Z,75.49
2018-02-10T11:23:13.634Z,75.23
2018-02-10T11:25:41.988Z,75.44
2018-02-10T11:28:10.287Z,75.56
2018-02-10T11:30:39.353Z,75.72
2018-02-10T11:33:07.699Z,75.65
2018-02-10T11:35:37.030Z,74.78
2018-02-10T11:38:05.383Z,75.01
2018-02-10T11:40:34.691Z,75.57
2018-02-10T11:43:03.023Z,76.06
2018-02-10T11:45:31.497Z,75.84
2018-02-10T11:47:59.912Z,76.17
2018-02-10T11:50:29.184Z,75.99
2018-02-10T11:52:58.442Z,76.20
2018-02-10T11:55:26.759Z,76.67
2018-02-10T11:57:55.285Z,76.41
2018-02-10T12:00:23.663Z,76.24
2018-02-10T12:02:52.102Z,77.30
2018-02-10T12:05:21.241Z,76.33
2018-02-10T12:07:49.788Z,76.62
2018-02-10T12:10:18.996Z,76.39
2018-02-10T12:12:48.165Z,76.46
2018-02-10T12:15:16.650Z,75.93
2018-02-10T12:17:45.010Z,76.26
2018-02-10T12:20:13.481Z,75.70
2018-02-10T12:22:41.949Z,75.24
2018-02-10T12:25:10.263Z,74.81
2018-02-10T12:27:38.620Z,74.76
2018-02-10T12:30:06.929Z,74.21
2018-02-10T12:32:36.162Z,73.45
2018-02-10T12:35:04.479Z,73.88
2018-02-10T12:37:32.966Z,74.28
2018-02-10T12:40:01.296Z,74.47
2018-02-10T12:42:29.634Z,74.29
2018-02-10T12:44:58.907Z,74.65
2018-02-10T12:47:27.290Z,74.39
2018-02-10T12:49:55.604Z,74.45
2018-02-10T12:52:23.976Z,73.76
2018-02-10T12:54:52.462Z,75.15
2018-02-10T12:57:20.821Z,75.04
2018-02-10T12:59:50.876Z,74.48
2018-02-10T13:02:19.186Z,74.11
2018-02-10T13:04:47.848Z,74.29
2018-02-10T13:07:16.574Z,74.83
2018-02-10T13:09:44.998Z,74.98
2018-02-10T13:12:13.327Z,75.02
2018-02-10T13:14:42.509Z,74.82
2018-02-10T13:17:11.030Z,75.65
2018-02-10T13:19:39.342Z,75.83
2018-02-10T13:22:07.705Z,75.02
2018-02-10T13:24:36.016Z,75.91
2018-02-10T13:27:05.187Z,75.45
2018-02-10T13:29:33.518Z,74.94
2018-02-10T13:32:02.837Z,75.50
2018-02-10T13:34:31.231Z,74.62
2018-02-10T13:36:59.528Z,74.00
2018-02-10T13:39:27.830Z,73.83
2018-02-10T13:41:57.077Z,73.93
2018-02-10T13:44:25.428Z,73.98
2018-02-10T13:46:54.746Z,74.03
2018-02-10T13:49:23.083Z,74.13
2018-02-10T13:51:51.655Z,73.48
2018-02-10T13:54:20.170Z,73.76
2018-02-10T13:56:48.503Z,73.11
2018-02-10T13:59:17.626Z,73.74
2018-02-10T14:01:46.707Z,73.16
2018-02-10T14:04:15.819Z,73.30
2018-02-10T14:06:45.258Z,73.64
2018-02-10T14:09:13.554Z,72.71
2018-02-10T14:11:41.994Z,72.25
2018-02-10T14:14:10.347Z,71.14
2018-02-10T14:16:39.528Z,72.18
2018-02-10T14:19:08.208Z,72.74
2018-02-10T14:21:37.373Z,72.12
2018-02-10T14:24:05.954Z,72.51
2018-02-10T14:26:34.339Z,72.90
2018-02-10T14:29:03.876Z,72.56
2018-02-10T14:31:33.078Z,73.00
2018-02-10T14:34:02.383Z,73.25
2018-02-10T14:36:31.622Z,73.42
2018-02-10T14:39:00.350Z,73.58
2018-02-10T14:41:28.687Z,72.77
2018-02-10T14:43:57.055Z,72.46
2018-02-10T14:46:25.373Z,72.49
2018-02-10T14:48:54.561Z,72.40
2018-02-10T14:51:23.113Z,72.21
2018-02-10T14:53:51.435Z,72.05
2018-02-10T14:56:20.590Z,72.29
2018-02-10T14:58:48.916Z,72.78
2018-02-10T15:01:18.065Z,72.70
2018-02-10T15:03:46.543Z,73.23
2018-02-10T15:06:15.072Z,72.50
2018-02-10T15:08:43.409Z,72.49
2018-02-10T15:11:11.752Z,72.48
2018-02-10T15:13:40.080Z,71.98
2018-02-10T15:16:08.450Z,72.27
2018-02-10T15:18:36.900Z,71.28
2018-02-10T15:21:05.205Z,69.99
2018-02-10T15:23:33.615Z,70.12
2018-02-10T15:26:02.063Z,71.01
2018-02-10T15:28:30.379Z,70.45
2018-02-10T15:31:17.294Z,70.31
2018-02-10T15:34:03.450Z,69.77
2018-02-10T15:36:31.792Z,69.78
2018-02-10T15:39:00.094Z,69.61
2018-02-10T15:41:28.467Z,68.94
2018-02-10T15:43:57.340Z,68.96
2018-02-10T15:46:25.694Z,68.83
2018-02-10T15:48:54.295Z,69.47
2018-02-10T15:51:22.728Z,69.69
2018-02-10T15:53:51.841Z,69.13
2018-02-10T15:56:23.736Z,69.44
2018-02-10T15:58:53.155Z,69.19
2018-02-10T16:01:22.597Z,68.94
2018-02-10T16:03:51.759Z,69.42
2018-02-10T16:06:21.255Z,69.33
2018-02-10T16:08:49.578Z,69.27
2018-02-10T16:11:18.720Z,69.10
2018-02-10T16:13:47.057Z,69.60
2018-02-10T16:16:15.383Z,69.70
2018-02-10T16:18:45.113Z,69.21
2018-02-10T16:21:13.487Z,69.46
2018-02-10T16:23:41.843Z,69.51
2018-02-10T16:26:10.532Z,69.80
2018-02-10T16:28:39.525Z,70.04
2018-02-10T16:31:07.877Z,69.97
2018-02-10T16:33:36.477Z,69.79
2018-02-10T16:36:05.186Z,70.21
2018-02-10T16:38:33.520Z,70.23
2018-02-10T16:41:02.057Z,70.14
2018-02-10T16:43:31.180Z,70.49
2018-02-10T16:45:59.494Z,70.41
2018-02-10T16:48:27.857Z,70.90
2018-02-10T16:50:56.270Z,69.85
2018-02-10T16:53:24.830Z,70.43
2018-02-10T16:55:53.552Z,70.67
2018-02-10T16:58:22.633Z,70.87
2018-02-10T17:00:51.181Z,70.80
2018-02-10T17:03:19.486Z,71.14
2018-02-10T17:05:47.930Z,70.94
2018-02-10T17:08:16.307Z,70.96
2018-02-10T17:10:44.749Z,70.33
2018-02-10T17:13:13.378Z,70.85
2018-02-10T17:15:41.692Z,70.54
2018-02-10T17:18:10.798Z,70.44
2018-02-10T17:20:39.142Z,71.00
2018-02-10T17:23:08.234Z,70.83
2018-02-10T17:25:37.465Z,70.50
2018-02-10T17:28:06.693Z,71.00
2018-02-10T17:30:35.020Z,70.63
2018-02-10T17:33:03.512Z,71.04
2018-02-10T17:35:32.658Z,71.00
2018-02-10T17:38:01.222Z,71.06
2018-02-10T17:40:29.539Z,71.20
2018-02-10T17:42:58.272Z,71.18
2018-02-10T17:45:26.663Z,71.46
2018-02-10T17:47:55.081Z,71.64
2018-02-10T17:50:23.380Z,71.99
2018-02-10T17:52:52.511Z,71.76
2018-02-10T17:55:20.853Z,72.39
2018-02-10T17:57:49.945Z,72.22
2018-02-10T18:00:19.479Z,72.11
2018-02-10T18:02:48.370Z,72.45
2018-02-10T18:05:16.938Z,72.57
2018-02-10T18:07:45.270Z,72.64
2018-02-10T18:10:13.579Z,72.81
2018-02-10T18:12:43.418Z,72.25
2018-02-10T18:15:11.735Z,72.22
2018-02-10T18:17:40.238Z,72.25
2018-02-10T18:20:10.145Z,72.75
2018-02-10T18:22:38.677Z,72.36
2018-02-10T18:25:07.660Z,72.66
2018-02-10T18:27:36.086Z,72.44
2018-02-10T18:30:05.132Z,72.61
2018-02-10T18:32:33.692Z,73.09
2018-02-10T18:35:03.645Z,73.42
2018-02-10T18:37:31.986Z,73.50
2018-02-10T18:40:00.317Z,73.43
2018-02-10T18:42:28.658Z,73.47
2018-02-10T18:44:56.983Z,73.78
2018-02-10T18:47:25.518Z,73.19
2018-02-10T18:49:53.864Z,73.60
2018-02-10T18:52:23.053Z,74.02
2018-02-10T18:54:52.203Z,73.97
2018-02-10T18:57:20.534Z,74.09
2018-02-10T18:59:49.719Z,74.14
2018-02-10T19:02:19.200Z,73.70
2018-02-10T19:04:47.608Z,74.27
2018-02-10T19:07:16.765Z,74.38
2018-02-10T19:09:45.937Z,74.53
2018-02-10T19:12:14.395Z,74.43
2018-02-10T19:14:42.938Z,74.93
2018-02-10T19:17:12.193Z,74.69
2018-02-10T19:19:40.621Z,75.28
2018-02-10T19:22:09.041Z,75.18
2018-02-10T19:24:37.369Z,74.91
2018-02-10T19:27:05.710Z,75.44
2018-02-10T19:29:34.138Z,75.17
2018-02-10T19:32:03.427Z,75.31
2018-02-10T19:34:32.515Z,74.85
2018-02-10T19:37:01.174Z,75.22
2018-02-10T19:39:29.487Z,76.03
2018-02-10T19:41:58.594Z,76.12
2018-02-10T19:44:27.964Z,76.01
2018-02-10T19:46:57.188Z,75.98
2018-02-10T19:49:26.453Z,76.58
2018-02-10T19:51:54.903Z,75.94
2018-02-10T19:54:23.475Z,76.32
2018-02-10T19:56:51.837Z,76.86
2018-02-10T19:59:20.366Z,76.66
2018-02-10T20:01:48.971Z,76.95
2018-02-10T20:04:17.960Z,76.82
2018-02-10T20:06:46.301Z,76.68
2018-02-10T20:09:14.671Z,76.66
2018-02-10T20:11:43.971Z,76.98
2018-02-10T20:14:12.319Z,77.10
2018-02-10T20:16:41.582Z,77.34
2018-02-10T20:19:10.692Z,77.39
2018-02-10T20:21:39.807Z,77.26
2018-02-10T20:24:08.196Z,77.67
2018-02-10T20:26:36.543Z,77.41
2018-02-10T20:29:05.825Z,77.89
2018-02-10T20:31:34.333Z,78.38
2018-02-10T20:34:03.938Z,78.29
2018-02-10T20:36:32.316Z,78.30
2018-02-10T20:39:01.953Z,78.10
2018-02-10T20:41:30.334Z,78.22
2018-02-10T20:43:58.722Z,78.52
2018-02-10T20:46:27.165Z,78.15
2018-02-10T20:48:56.341Z,78.30
2018-02-10T20:51:24.681Z,78.37
2018-02-10T20:53:52.998Z,78.52
2018-02-10T20:56:22.108Z,78.33
2018-02-10T20:58:50.457Z,78.43
2018-02-10T21:01:19.056Z,78.96
2018-02-10T21:03:48.202Z,78.99
2018-02-10T21:06:16.532Z,79.16
2018-02-10T21:08:45.719Z,79.23
2018-02-10T21:11:14.796Z,79.22
2018-02-10T21:13:43.287Z,79.24
2018-02-10T21:16:12.250Z,79.33
2018-02-10T21:18:40.669Z,79.72
2018-02-10T21:21:09.049Z,79.43
2018-02-10T21:23:38.215Z,79.26
2018-02-10T21:26:06.567Z,79.50
2018-02-10T21:28:34.936Z,79.38
2018-02-10T21:31:03.312Z,79.84
2018-02-10T21:33:31.664Z,79.60
2018-02-10T21:36:00.033Z,79.07
2018-02-10T21:38:29.185Z,79.61
2018-02-10T21:40:57.593Z,79.97
2018-02-10T21:43:26.683Z,79.97
2018-02-10T21:45:55.778Z,80.80
2018-02-10T21:48:24.885Z,80.30
2018-02-10T21:50:53.983Z,80.33
2018-02-10T21:53:22.291Z,80.77
2018-02-10T21:55:50.637Z,80.65
2018-02-10T21:58:19.134Z,80.61
2018-02-10T22:00:47.689Z,80.78
2018-02-10T22:03:16.819Z,81.30
2018-02-10T22:05:45.125Z,81.25
2018-02-10T22:08:13.464Z,80.78
2018-02-10T22:10:41.778Z,81.06
2018-02-10T22:13:10.124Z,80.60
2018-02-10T22:15:38.440Z,80.31
2018-02-10T22:18:06.814Z,80.54
2018-02-10T22:20:35.158Z,80.71
2018-02-10T22:23:03.534Z,80.76
2018-02-10T22:25:31.876Z,80.87
2018-02-10T22:28:00.183Z,80.67
2018-02-10T22:30:28.546Z,80.95
2018-02-10T22:32:56.882Z,80.91
2018-02-10T22:35:25.322Z,81.03
2018-02-10T22:37:53.621Z,80.94
2018-02-10T22:40:21.971Z,80.84
2018-02-10T22:42:50.291Z,81.06
2018-02-10T22:45:18.702Z,81.17
2018-02-10T22:47:47.232Z,81.17
2018-02-10T22:50:15.576Z,81.12
2018-02-10T22:52:43.934Z,81.19
2018-02-10T22:55:12.253Z,81.30
2018-02-10T22:57:40.609Z,81.12
2018-02-10T23:00:08.914Z,81.44
2018-02-10T23:02:37.399Z,81.21
2018-02-10T23:05:05.908Z,80.97
2018-02-10T23:07:35.034Z,80.86
2018-02-10T23:10:03.666Z,80.41
2018-02-10T23:12:31.985Z,80.22
2018-02-10T23:15:00.324Z,80.63
2018-02-10T23:17:29.401Z,80.35
2018-02-10T23:19:57.742Z,80.46
2018-02-10T23:22:26.057Z,80.33
2018-02-10T23:24:54.391Z,80.61
2018-02-10T23:27:22.774Z,80.59
2018-02-10T23:29:51.238Z,80.73
2018-02-10T23:32:19.554Z,80.75
2018-02-10T23:34:47.908Z,80.27
2018-02-10T23:37:16.238Z,80.19
2018-02-10T23:39:44.569Z,79.96
2018-02-10T23:42:13.863Z,79.72
2018-02-10T23:44:42.176Z,79.66
2018-02-10T23:47:10.570Z,80.26
2018-02-10T23:49:39.665Z,80.86
2018-02-10T23:52:08.767Z,80.69
2018-02-10T23:54:37.114Z,80.81
2018-02-10T23:57:06.971Z,81.31
2018-02-10T23:59:35.286Z,81.61
